Time;durP1;ratioP1;P1;durP2;ratioP2;P2;SDS_P1;SDS_P2;PMS_P1;PMS_P2;Temp;Humidity;BMP_temperature;BMP_pressure;BME280_temperature;BME280_humidity;BME280_pressure;Samples;Min_cycle;Max_cycle;Signal;HPM_P1;HPM_P2
2023/01/20 00:01:15;;;;;;;42.75;23.25;;;;;;;-0.16;100.00;100980.06;5031705;28;20060;-67
2023/01/20 00:03:41;;;;;;;38.88;18.85;;;;;;;-0.19;100.00;100980.31;5031643;28;20116;-67
2023/01/20 00:06:08;;;;;;;41.05;18.75;;;;;;;-0.17;100.00;100984.47;5031776;28;20026;-67
2023/01/20 00:08:33;;;;;;;40.67;21.63;;;;;;;-0.22;100.00;100982.22;5031602;28;20037;-68
2023/01/20 00:11:06;;;;;;;36.05;20.90;;;;;;;-0.24;100.00;100981.53;5031523;28;20048;-68
2023/01/20 00:13:33;;;;;;;38.00;21.48;;;;;;;-0.25;100.00;100998.19;5031659;28;20033;-68
2023/01/20 00:16:01;;;;;;;39.67;22.02;;;;;;;-0.28;100.00;100992.38;5031449;28;20025;-67
2023/01/20 00:18:27;;;;;;;40.92;20.55;;;;;;;-0.30;100.00;100984.63;5013870;28;20044;-67
2023/01/20 00:20:53;;;;;;;38.35;20.33;;;;;;;-0.19;100.00;100998.66;5031383;28;20029;-67
2023/01/20 00:23:18;;;;;;;40.15;20.55;;;;;;;-0.18;100.00;101001.16;5031188;28;20382;-67
2023/01/20 00:25:44;;;;;;;32.97;17.08;;;;;;;-0.15;100.00;101013.19;5031086;28;20049;-68
2023/01/20 00:28:09;;;;;;;29.77;14.70;;;;;;;-0.15;100.00;101014.00;5031286;28;20033;-68
2023/01/20 00:30:34;;;;;;;33.00;16.80;;;;;;;-0.13;100.00;101021.75;5031127;28;20068;-67
2023/01/20 00:33:00;;;;;;;32.08;15.27;;;;;;;-0.13;100.00;101012.13;5031081;28;20060;-67
2023/01/20 00:35:25;;;;;;;33.47;16.50;;;;;;;-0.12;100.00;101012.94;5031030;28;20079;-68
2023/01/20 00:37:50;;;;;;;29.13;14.75;;;;;;;-0.06;100.00;101017.69;5031058;28;20025;-67
2023/01/20 00:40:16;;;;;;;30.75;13.18;;;;;;;-0.05;100.00;101022.81;5030999;28;20123;-67
2023/01/20 00:42:41;;;;;;;25.75;13.75;;;;;;;-0.07;100.00;101027.34;5030927;28;20046;-67
2023/01/20 00:45:07;;;;;;;25.63;11.95;;;;;;;-0.07;100.00;101023.88;5030901;28;20445;-67
2023/01/20 00:47:32;;;;;;;28.00;13.43;;;;;;;-0.09;100.00;101031.88;5030852;28;20071;-68
2023/01/20 00:49:57;;;;;;;27.60;14.02;;;;;;;-0.10;100.00;101032.84;5030347;28;20112;-68
2023/01/20 00:52:23;;;;;;;25.65;12.07;;;;;;;-0.10;100.00;101030.22;5029626;28;20064;-68
2023/01/20 00:54:48;;;;;;;32.08;13.38;;;;;;;-0.10;100.00;101027.59;5029741;28;20053;-67
2023/01/20 00:57:13;;;;;;;32.08;17.13;;;;;;;-0.08;100.00;101030.94;5029334;28;20059;-67
2023/01/20 00:59:39;;;;;;;46.05;15.73;;;;;;;-0.10;100.00;101026.75;5029258;28;20104;-67
2023/01/20 01:02:04;;;;;;;29.88;14.45;;;;;;;-0.08;100.00;101036.16;5029182;28;20496;-67
2023/01/20 01:04:29;;;;;;;30.58;17.05;;;;;;;-0.09;100.00;101034.47;5029240;28;20125;-67
2023/01/20 01:06:55;;;;;;;34.13;15.82;;;;;;;-0.14;100.00;101034.03;5029156;28;20995;-67
2023/01/20 01:09:21;;;;;;;35.28;16.40;;;;;;;-0.13;100.00;101034.84;5029146;28;20029;-67
2023/01/20 01:11:47;;;;;;;31.15;15.05;;;;;;;-0.18;100.00;101027.38;5029237;28;20061;-67
2023/01/20 01:14:12;;;;;;;28.73;14.85;;;;;;;-0.16;100.00;101035.91;5029087;28;20120;-67
2023/01/20 01:16:37;;;;;;;37.72;18.73;;;;;;;-0.16;100.00;101030.69;5028841;28;20114;-67
2023/01/20 01:19:03;;;;;;;35.55;16.48;;;;;;;-0.17;100.00;101038.69;5029548;28;20475;-67
2023/01/20 01:21:28;;;;;;;32.97;15.20;;;;;;;-0.18;100.00;101047.47;5012554;28;20030;-68
2023/01/20 01:23:54;;;;;;;33.33;14.50;;;;;;;-0.20;100.00;101049.41;5029829;28;20061;-67
2023/01/20 01:26:19;;;;;;;32.35;14.90;;;;;;;-0.20;100.00;101044.19;5030081;28;20029;-68
2023/01/20 01:28:48;;;;;;;32.65;15.60;;;;;;;-0.19;100.00;101053.69;5030113;28;20370;-68
2023/01/20 01:31:15;;;;;;;32.28;15.57;;;;;;;-0.20;100.00;101062.53;5029915;28;20421;-67
2023/01/20 01:33:41;;;;;;;29.70;13.18;;;;;;;-0.19;100.00;101061.56;5030024;28;20156;-68
2023/01/20 01:36:11;;;;;;;33.42;14.35;;;;;;;-0.24;100.00;101057.53;5030061;28;20033;-68
2023/01/20 01:38:36;;;;;;;31.52;17.20;;;;;;;-0.22;100.00;101066.06;5029990;28;20396;-67
2023/01/20 01:41:01;;;;;;;37.03;15.43;;;;;;;-0.16;100.00;101066.56;5029880;28;20034;-68
2023/01/20 01:43:30;;;;;;;37.13;16.70;;;;;;;-0.15;100.00;101068.22;5029793;28;20481;-68
2023/01/20 01:45:56;;;;;;;36.13;16.42;;;;;;;-0.13;100.00;101071.53;5029183;28;20025;-67
2023/01/20 01:48:26;;;;;;;38.47;16.02;;;;;;;-0.12;100.00;101068.81;5029270;28;20044;-68
2023/01/20 01:50:57;;;;;;;36.97;16.53;;;;;;;-0.15;100.00;101069.06;5028972;28;20044;-68
2023/01/20 01:53:23;;;;;;;34.38;17.98;;;;;;;-0.10;100.00;101081.81;5028905;28;20978;-68
2023/01/20 01:56:00;;;;;;;38.10;16.77;;;;;;;-0.11;100.00;101080.13;5028754;28;20028;-67
2023/01/20 01:58:31;;;;;;;37.55;17.73;;;;;;;-0.09;100.00;101081.66;5028875;28;20033;-67
2023/01/20 02:00:56;;;;;;;36.93;17.23;;;;;;;-0.10;100.00;101084.44;5028763;28;20025;-67
2023/01/20 02:03:23;;;;;;;36.28;17.85;;;;;;;-0.11;100.00;101080.13;5028635;28;20045;-68
2023/01/20 02:05:51;;;;;;;37.47;16.88;;;;;;;-0.08;100.00;101085.13;5028390;28;20040;-68
2023/01/20 02:08:18;;;;;;;40.58;19.65;;;;;;;-0.11;100.00;101070.47;5028714;28;20386;-67
2023/01/20 02:10:43;;;;;;;35.05;17.05;;;;;;;-0.11;100.00;101072.25;5028272;28;20116;-67
2023/01/20 02:13:09;;;;;;;40.28;19.08;;;;;;;-0.13;100.00;101067.16;5028918;28;20029;-68
2023/01/20 02:15:45;;;;;;;33.47;17.02;;;;;;;-0.12;100.00;101071.44;5011403;28;20029;-68
2023/01/20 02:18:26;;;;;;;34.83;17.52;;;;;;;-0.12;100.00;101071.44;5029050;28;20508;-68
2023/01/20 02:21:29;;;;;;;32.30;16.52;;;;;;;-0.11;100.00;101065.22;5028741;28;20030;-68
2023/01/20 02:24:06;;;;;;;36.63;17.23;;;;;;;-0.12;100.00;101073.22;5028775;28;20056;-68
2023/01/20 02:26:37;;;;;;;32.70;16.83;;;;;;;-0.12;100.00;101071.44;5029044;28;20555;-68
2023/01/20 02:29:18;;;;;;;35.80;14.55;;;;;;;-0.10;100.00;101077.41;5029370;28;20045;-68
2023/01/20 02:31:50;;;;;;;38.85;20.10;;;;;;;-0.11;100.00;101069.63;5029282;28;20032;-68
2023/01/20 02:34:24;;;;;;;;;;;;;;;-0.10;100.00;101064.28;5029872;28;20043;-68
2023/01/20 02:36:56;;;;;;;36.60;18.63;;;;;;;-0.08;100.00;101075.50;5029232;28;19919;-68
2023/01/20 02:39:35;;;;;;;32.75;15.80;;;;;;;-0.10;100.00;101066.91;5029299;28;20026;-68
2023/01/20 02:42:08;;;;;;;39.08;18.70;;;;;;;-0.12;100.00;101071.44;5029087;28;20041;-68
2023/01/20 02:44:49;;;;;;;35.13;17.00;;;;;;;-0.10;100.00;101084.44;5029028;28;20036;-68
2023/01/20 02:47:17;;;;;;;35.67;17.15;;;;;;;-0.08;100.00;101091.22;5028527;28;20500;-68
2023/01/20 02:49:58;;;;;;;37.35;14.27;;;;;;;-0.10;100.00;101080.00;5028463;28;20979;-68
2023/01/20 02:52:30;;;;;;;44.35;16.95;;;;;;;-0.14;100.00;101072.50;5028318;28;20029;-68
2023/01/20 02:55:01;;;;;;;37.28;16.75;;;;;;;-0.10;100.00;101087.06;5028301;28;20528;-68
2023/01/20 02:57:37;;;;;;;40.47;18.05;;;;;;;-0.08;100.00;101087.75;5028276;28;20029;-68
2023/01/20 03:00:12;;;;;;;40.00;20.48;;;;;;;-0.07;100.00;101086.81;5028318;28;20033;-68
2023/01/20 03:02:40;;;;;;;36.83;17.42;;;;;;;-0.09;100.00;101084.28;5028312;28;20477;-68
2023/01/20 03:05:13;;;;;;;34.38;15.27;;;;;;;-0.09;100.00;101094.78;5028107;28;20061;-68
2023/01/20 03:07:42;;;;;;;37.08;13.93;;;;;;;-0.08;100.00;101099.09;5028552;28;20129;-68
2023/01/20 03:10:13;;;;;;;35.70;16.65;;;;;;;-0.08;100.00;101106.94;5028852;28;20068;-68
2023/01/20 03:12:49;;;;;;;36.70;18.00;;;;;;;-0.07;100.00;101108.59;5029094;28;20131;-68
2023/01/20 03:15:15;;;;;;;36.00;16.52;;;;;;;-0.10;100.00;101098.38;5029084;28;20032;-68
2023/01/20 03:17:40;;;;;;;33.10;14.70;;;;;;;-0.08;100.00;101098.22;5028993;28;20049;-68
2023/01/20 03:20:07;;;;;;;35.45;16.35;;;;;;;-0.14;100.00;101096.94;5028841;28;20061;-68
2023/01/20 03:22:32;;;;;;;31.33;13.52;;;;;;;-0.11;100.00;101098.47;5030426;28;20131;-68
2023/01/20 03:24:58;;;;;;;32.47;15.10;;;;;;;-0.08;100.00;101101.72;5032173;28;20104;-68
2023/01/20 03:27:24;;;;;;;38.97;16.15;;;;;;;-0.07;100.00;101108.59;5032496;28;20034;-68
2023/01/20 03:29:50;;;;;;;36.30;17.52;;;;;;;-0.05;100.00;101111.13;5032270;28;20064;-67
2023/01/20 03:32:17;;;;;;;37.17;16.45;;;;;;;-0.07;100.00;101107.78;5032266;28;20168;-67
2023/01/20 03:34:43;;;;;;;30.00;14.13;;;;;;;-0.09;100.00;101110.50;5032240;28;20468;-68
2023/01/20 03:37:11;;;;;;;33.45;16.13;;;;;;;-0.11;100.00;101115.03;5032147;28;20139;-68
2023/01/20 03:39:38;;;;;;;27.30;14.00;;;;;;;-0.10;100.00;101118.50;5032168;28;20087;-69
2023/01/20 03:42:07;;;;;;;36.33;17.08;;;;;;;-0.09;100.00;101112.31;5032335;28;20477;-68
2023/01/20 03:44:41;;;;;;;32.92;13.32;;;;;;;-0.10;100.00;101123.75;5031907;28;20025;-69
2023/01/20 03:47:16;;;;;;;40.30;16.70;;;;;;;-0.11;100.00;101124.69;5031016;28;20500;-68
2023/01/20 03:49:55;;;;;;;29.27;14.35;;;;;;;-0.12;100.00;101125.66;5031009;28;20029;-68
2023/01/20 03:52:33;;;;;;;33.90;13.45;;;;;;;-0.13;100.00;101124.81;5031097;28;20033;-68
2023/01/20 03:55:12;;;;;;;29.92;13.30;;;;;;;-0.11;100.00;101122.06;5030782;28;20028;-68
2023/01/20 03:57:43;;;;;;;38.33;17.25;;;;;;;-0.13;100.00;101124.81;5030954;28;20508;-68
2023/01/20 04:00:10;;;;;;;33.20;14.95;;;;;;;-0.16;100.00;101125.03;5031244;28;20022;-68
2023/01/20 04:02:37;;;;;;;33.80;15.90;;;;;;;-0.20;100.00;101115.78;5030547;28;20083;-68
2023/01/20 04:05:05;;;;;;;34.65;15.73;;;;;;;-0.17;100.00;101126.00;5030269;28;20037;-68
2023/01/20 04:07:31;;;;;;;29.88;14.35;;;;;;;-0.16;100.00;101125.03;5030260;28;20064;-68
2023/01/20 04:10:04;;;;;;;30.73;12.43;;;;;;;-0.18;100.00;101129.59;5030425;28;20377;-68
2023/01/20 04:12:30;;;;;;;32.78;15.40;;;;;;;-0.20;100.00;101121.00;5030933;28;20485;-68
2023/01/20 04:14:55;;;;;;;29.80;15.43;;;;;;;-0.22;100.00;101128.16;5030960;28;20029;-68
2023/01/20 04:17:26;;;;;;;31.17;14.63;;;;;;;-0.19;100.00;101127.91;5031601;28;20026;-68
2023/01/20 04:19:51;;;;;;;31.33;14.07;;;;;;;-0.20;100.00;101128.03;5031362;28;20037;-68
2023/01/20 04:22:26;;;;;;;29.10;12.88;;;;;;;-0.19;100.00;101122.66;5031155;28;20029;-68
2023/01/20 04:24:58;;;;;;;34.03;16.95;;;;;;;-0.20;100.00;101121.00;5030837;28;20141;-68
2023/01/20 04:27:24;;;;;;;35.08;15.35;;;;;;;-0.21;100.00;101116.72;5031209;28;20384;-68
2023/01/20 04:29:49;;;;;;;29.10;14.10;;;;;;;-0.18;100.00;101115.63;5031225;28;20029;-68
2023/01/20 04:32:15;;;;;;;29.92;14.80;;;;;;;-0.24;100.00;101115.19;5030860;28;20365;-68
2023/01/20 04:34:40;;;;;;;33.58;15.68;;;;;;;-0.18;100.00;101119.13;5030819;28;20116;-68
2023/01/20 04:37:05;;;;;;;34.67;15.07;;;;;;;-0.18;100.00;101128.75;5031177;28;20601;-68
2023/01/20 04:39:31;;;;;;;33.10;14.68;;;;;;;-0.22;100.00;101123.75;5030834;28;20037;-68
2023/01/20 04:41:56;;;;;;;31.67;14.52;;;;;;;-0.20;100.00;101126.25;5030596;28;20091;-68
2023/01/20 04:44:21;;;;;;;34.47;14.68;;;;;;;-0.21;100.00;101127.19;5030886;28;20061;-68
2023/01/20 04:46:47;;;;;;;34.63;15.75;;;;;;;-0.20;100.00;101135.91;5030057;28;20614;-68
2023/01/20 04:49:13;;;;;;;37.03;17.95;;;;;;;-0.19;100.00;101134.94;5029962;28;20029;-68
2023/01/20 04:51:38;;;;;;;34.03;15.35;;;;;;;-0.20;100.00;101147.22;5029857;28;20480;-68
2023/01/20 04:54:05;;;;;;;37.33;15.40;;;;;;;-0.25;100.00;101126.59;5029948;28;20033;-68
2023/01/20 04:56:31;;;;;;;43.35;19.45;;;;;;;-0.20;100.00;101139.34;5011906;28;20021;-68
2023/01/20 04:58:56;;;;;;;36.33;15.18;;;;;;;-0.19;100.00;101145.44;5029900;28;20037;-68
2023/01/20 05:01:22;;;;;;;36.42;16.50;;;;;;;-0.20;100.00;101141.97;5029879;28;20095;-68
2023/01/20 05:03:47;;;;;;;35.20;15.07;;;;;;;-0.21;100.00;101142.91;5029879;28;20067;-68
2023/01/20 05:06:12;;;;;;;35.30;16.80;;;;;;;-0.20;100.00;101149.84;5011912;28;20038;-68
2023/01/20 05:08:38;;;;;;;35.58;17.00;;;;;;;-0.18;100.00;101152.31;5029935;28;20037;-69
2023/01/20 05:11:04;;;;;;;37.30;17.27;;;;;;;-0.21;100.00;101150.78;5029763;28;20223;-68
2023/01/20 05:13:30;;;;;;;36.13;18.02;;;;;;;-0.21;100.00;101148.16;5029659;28;20476;-68
2023/01/20 05:15:55;;;;;;;36.25;17.17;;;;;;;-0.20;100.00;101151.63;5030253;28;20021;-68
2023/01/20 05:18:20;;;;;;;37.13;17.23;;;;;;;-0.19;100.00;101148.88;5030270;28;20064;-68
2023/01/20 05:20:47;;;;;;;37.22;19.33;;;;;;;-0.22;100.00;101155.19;5030263;28;20489;-68
2023/01/20 05:23:13;;;;;;;38.50;16.10;;;;;;;-0.26;100.00;101150.34;5029635;28;20055;-68
2023/01/20 05:25:38;;;;;;;39.78;18.42;;;;;;;-0.31;100.00;101153.31;5029649;28;20112;-68
2023/01/20 05:28:04;;;;;;;34.90;14.60;;;;;;;-0.26;100.00;101161.63;5030144;28;20029;-68
2023/01/20 05:30:29;;;;;;;35.08;17.50;;;;;;;-0.27;100.00;101159.97;5030149;28;20060;-68
2023/01/20 05:32:55;;;;;;;38.92;18.52;;;;;;;-0.29;100.00;101163.66;5029936;28;20061;-68
2023/01/20 05:35:20;;;;;;;31.63;14.75;;;;;;;-0.33;100.00;101157.81;5030131;28;20018;-68
2023/01/20 05:37:46;;;;;;;32.30;13.70;;;;;;;-0.36;100.00;101157.22;5029722;28;20448;-68
2023/01/20 05:40:12;;;;;;;32.30;15.07;;;;;;;-0.39;100.00;101162.69;5029438;28;20131;-68
2023/01/20 05:42:38;;;;;;;32.50;16.27;;;;;;;-0.37;100.00;101159.00;5029860;28;20034;-68
2023/01/20 05:45:04;;;;;;;32.42;15.57;;;;;;;-0.38;100.00;101161.75;5028959;28;20499;-68
2023/01/20 05:47:29;;;;;;;32.63;14.95;;;;;;;-0.39;100.00;101160.06;5028825;28;20100;-68
2023/01/20 05:49:54;;;;;;;34.60;16.20;;;;;;;-0.38;100.00;101167.00;5028888;28;20060;-68
2023/01/20 05:52:20;;;;;;;36.55;18.17;;;;;;;-0.36;100.00;101172.94;5011178;28;20033;-68
2023/01/20 05:54:45;;;;;;;34.08;15.48;;;;;;;-0.36;100.00;101165.91;5028946;28;20038;-68
2023/01/20 05:57:11;;;;;;;38.58;17.33;;;;;;;-0.33;100.00;101170.91;5028823;28;20067;-68
2023/01/20 05:59:36;;;;;;;35.65;16.10;;;;;;;-0.31;100.00;101168.19;5028970;28;20033;-68
2023/01/20 06:02:01;;;;;;;34.53;16.50;;;;;;;-0.31;100.00;101168.19;5028810;28;20033;-68
2023/01/20 06:04:27;;;;;;;35.53;15.38;;;;;;;-0.33;100.00;101177.97;5028441;28;20525;-68
2023/01/20 06:06:52;;;;;;;40.15;19.02;;;;;;;-0.32;100.00;101175.19;5028630;28;20025;-68
2023/01/20 06:09:17;;;;;;;34.90;17.13;;;;;;;-0.31;100.00;101173.44;5028788;28;20389;-68
2023/01/20 06:11:43;;;;;;;34.17;16.42;;;;;;;-0.32;100.00;101171.75;5028784;28;20042;-68
2023/01/20 06:14:08;;;;;;;36.42;16.23;;;;;;;-0.32;100.00;101174.38;5028669;28;20055;-68
2023/01/20 06:16:33;;;;;;;30.55;14.95;;;;;;;-0.32;100.00;101179.59;5029121;28;20137;-68
2023/01/20 06:18:59;;;;;;;36.60;14.55;;;;;;;-0.31;100.00;101181.31;5011709;28;20064;-68
2023/01/20 06:21:24;;;;;;;34.67;14.07;;;;;;;-0.30;100.00;101188.19;5029411;28;20029;-68
2023/01/20 06:23:50;;;;;;;27.75;12.63;;;;;;;-0.35;100.00;101172.81;5029324;28;20505;-68
2023/01/20 06:26:15;;;;;;;32.47;16.25;;;;;;;-0.28;100.00;101184.50;5028793;28;20041;-68
2023/01/20 06:28:41;;;;;;;38.58;16.63;;;;;;;-0.26;100.00;101192.25;5011555;28;20029;-68
2023/01/20 06:31:12;;;;;;;31.92;13.65;;;;;;;-0.24;100.00;101191.19;5028847;28;20373;-68
2023/01/20 06:33:38;;;;;;;35.67;17.95;;;;;;;-0.30;100.00;101191.66;5029294;28;20029;-68
2023/01/20 06:36:04;;;;;;;36.05;14.85;;;;;;;-0.23;100.00;101198.09;5029393;28;20032;-68
2023/01/20 06:38:31;;;;;;;32.85;14.40;;;;;;;-0.22;100.00;101191.88;5029466;28;20033;-68
2023/01/20 06:41:02;;;;;;;38.30;15.80;;;;;;;-0.20;100.00;101194.41;5029183;28;20037;-68
2023/01/20 06:43:29;;;;;;;34.17;15.20;;;;;;;-0.22;100.00;101189.25;5029309;28;20112;-68
2023/01/20 06:46:03;;;;;;;35.95;16.27;;;;;;;-0.19;100.00;101190.00;5028745;28;20492;-68
2023/01/20 06:48:28;;;;;;;34.47;15.32;;;;;;;-0.18;100.00;101196.88;5028272;28;20108;-68
2023/01/20 06:51:09;;;;;;;34.33;14.18;;;;;;;-0.25;100.00;101189.50;5028259;28;20565;-68
2023/01/20 06:53:34;;;;;;;36.47;17.20;;;;;;;-0.16;100.00;101195.00;5028335;28;20097;-68
2023/01/20 06:56:00;;;;;;;31.90;15.88;;;;;;;-0.15;100.00;101194.06;5028885;28;20123;-68
2023/01/20 06:58:29;;;;;;;34.72;16.83;;;;;;;-0.15;100.00;101199.28;5031939;28;20072;-68
2023/01/20 07:00:55;;;;;;;34.53;14.43;;;;;;;-0.16;100.00;101198.44;5032061;28;20029;-68
2023/01/20 07:03:22;;;;;;;32.13;14.10;;;;;;;-0.15;100.00;101197.50;5032098;28;20895;-68
2023/01/20 07:05:58;;;;;;;33.60;15.35;;;;;;;-0.17;100.00;101195.94;5032093;28;20022;-68
2023/01/20 07:08:24;;;;;;;31.50;15.10;;;;;;;-0.13;100.00;101200.84;5031631;28;20064;-68
2023/01/20 07:10:49;;;;;;;39.40;16.23;;;;;;;-0.12;100.00;101202.50;5031845;28;20971;-68
2023/01/20 07:13:15;;;;;;;33.55;14.45;;;;;;;-0.11;100.00;101198.91;5031808;28;20461;-68
2023/01/20 07:15:40;;;;;;;31.98;16.83;;;;;;;-0.07;100.00;101202.16;5032128;28;20037;-68
2023/01/20 07:18:05;;;;;;;37.45;16.80;;;;;;;-0.06;100.00;101206.44;5032442;28;20025;-69
2023/01/20 07:20:31;;;;;;;32.58;13.88;;;;;;;-0.04;100.00;101215.84;5032343;28;20067;-68
2023/01/20 07:22:59;;;;;;;30.45;16.00;;;;;;;-0.05;100.00;101219.44;5032258;28;20465;-68
2023/01/20 07:25:24;;;;;;;34.20;18.98;;;;;;;-0.03;100.00;101222.78;5032150;28;20061;-68
2023/01/20 07:27:49;;;;;;;31.77;17.95;;;;;;;-0.03;100.00;101227.16;5032324;28;20068;-68
2023/01/20 07:30:15;;;;;;;42.47;17.23;;;;;;;-0.02;100.00;101229.69;5032456;28;20060;-68
2023/01/20 07:32:41;;;;;;;46.53;16.40;;;;;;;-0.03;100.00;101233.28;5032297;28;20499;-68
2023/01/20 07:35:07;;;;;;;39.60;17.33;;;;;;;-0.02;100.00;101223.59;5032149;28;20034;-67
2023/01/20 07:37:32;;;;;;;36.88;17.02;;;;;;;-0.03;100.00;101221.91;5032088;28;20033;-69
2023/01/20 07:39:57;;;;;;;34.58;16.92;;;;;;;-0.02;100.00;101223.59;5032075;28;20036;-69
2023/01/20 07:42:23;;;;;;;34.53;16.92;;;;;;;-0.02;100.00;101215.75;5032233;28;20488;-69
2023/01/20 07:44:48;;;;;;;35.08;15.35;;;;;;;-0.07;100.00;101210.84;5031881;28;20091;-69
2023/01/20 07:47:13;;;;;;;32.72;14.48;;;;;;;-0.01;100.00;101217.41;5031421;28;20065;-69
2023/01/20 07:49:39;;;;;;;37.30;15.55;;;;;;;0.00;100.00;101229.56;5031073;28;20029;-69
2023/01/20 07:52:04;;;;;;;28.95;15.80;;;;;;;0.02;100.00;101239.94;5030958;28;20083;-70
2023/01/20 07:54:30;;;;;;;33.25;16.13;;;;;;;0.04;100.00;101243.28;5030843;28;20033;-70
2023/01/20 07:56:55;;;;;;;32.47;15.52;;;;;;;0.05;100.00;101240.50;5031088;28;20029;-70
2023/01/20 07:59:20;;;;;;;30.63;13.88;;;;;;;-0.01;100.00;101236.59;5030666;28;20060;-70
2023/01/20 08:01:46;;;;;;;36.78;16.90;;;;;;;0.07;100.00;101235.16;5031080;28;20025;-70
2023/01/20 08:04:12;;;;;;;36.95;17.67;;;;;;;0.07;100.00;101243.84;5013187;28;20496;-69
2023/01/20 08:06:37;;;;;;;32.38;16.23;;;;;;;0.08;100.00;101239.44;5030691;28;20116;-70
2023/01/20 08:09:02;;;;;;;39.38;16.52;;;;;;;0.08;100.00;101244.69;5030158;28;20079;-70
2023/01/20 08:11:28;;;;;;;34.80;16.92;;;;;;;0.09;100.00;101241.97;5030856;28;20490;-70
2023/01/20 08:13:53;;;;;;;39.97;16.42;;;;;;;0.09;100.00;101254.25;5013417;28;20083;-64
2023/01/20 08:16:19;;;;;;;34.30;17.33;;;;;;;0.05;100.00;101258.03;5031077;28;20087;-65
2023/01/20 08:18:45;;;;;;;36.25;16.92;;;;;;;0.05;100.00;101258.88;5031264;28;20067;-65
2023/01/20 08:21:29;;;;;;;35.78;15.25;;;;;;;0.04;100.00;101251.97;5031491;28;20083;-65
2023/01/20 08:23:55;;;;;;;37.15;16.70;;;;;;;0.07;100.00;101240.41;5031103;28;20529;-65
2023/01/20 08:26:23;;;;;;;34.72;16.23;;;;;;;0.10;100.00;101246.25;5031251;28;20112;-65
2023/01/20 08:28:49;;;;;;;38.88;15.70;;;;;;;0.12;100.00;101240.88;5030820;28;20084;-65
2023/01/20 08:31:17;;;;;;;33.95;15.32;;;;;;;0.11;100.00;101239.22;5031102;28;20021;-65
2023/01/20 08:33:43;;;;;;;33.13;16.90;;;;;;;0.12;100.00;101240.88;5031106;28;20037;-65
2023/01/20 08:36:12;;;;;;;32.50;14.85;;;;;;;0.10;100.00;101250.66;5031192;28;20080;-65
2023/01/20 08:38:38;;;;;;;33.75;15.20;;;;;;;0.05;100.00;101247.56;5031113;28;20362;-65
2023/01/20 08:41:22;;;;;;;31.85;14.80;;;;;;;0.06;100.00;101252.69;5013236;28;20041;-66
2023/01/20 08:43:49;;;;;;;31.77;14.27;;;;;;;0.07;100.00;101251.72;5025187;28;20037;-64
2023/01/20 08:46:16;;;;;;;35.90;15.63;;;;;;;0.02;100.00;101248.63;5024486;28;20036;-65
2023/01/20 08:48:43;;;;;;;34.15;14.93;;;;;;;0.07;100.00;101256.97;5024345;28;20265;-63
2023/01/20 08:51:12;;;;;;;31.95;14.63;;;;;;;0.09;100.00;101262.09;5024370;28;20040;-64
2023/01/20 08:53:38;;;;;;;34.42;14.13;;;;;;;0.06;100.00;101264.97;5024173;28;20036;-64
2023/01/20 08:56:04;;;;;;;31.00;12.88;;;;;;;0.08;100.00;101268.28;5024461;28;20029;-64
2023/01/20 08:58:29;;;;;;;30.23;13.68;;;;;;;0.08;100.00;101266.53;5024082;28;20424;-64
2023/01/20 09:00:55;;;;;;;34.88;15.90;;;;;;;0.10;100.00;101271.63;5024701;28;20499;-64
2023/01/20 09:03:21;;;;;;;31.05;15.18;;;;;;;0.05;100.00;101271.16;5024323;28;20863;-64
2023/01/20 09:05:46;;;;;;;34.08;14.80;;;;;;;0.08;100.00;101269.16;5024508;28;20124;-64
2023/01/20 09:08:13;;;;;;;29.42;14.75;;;;;;;0.08;100.00;101268.28;5006584;28;20029;-64
2023/01/20 09:10:38;;;;;;;27.63;12.88;;;;;;;0.08;100.00;101279.63;5023881;28;20136;-64
2023/01/20 09:13:03;;;;;;;34.55;16.17;;;;;;;0.06;100.00;101278.91;5023634;28;20124;-64
2023/01/20 09:15:29;;;;;;;30.17;14.93;;;;;;;0.07;100.00;101270.09;5023758;28;20080;-64
2023/01/20 09:17:54;;;;;;;26.25;14.05;;;;;;;0.07;100.00;101280.56;5024699;28;20071;-64
2023/01/20 09:20:20;;;;;;;28.65;11.68;;;;;;;0.05;100.00;101279.03;5024491;28;20021;-64
2023/01/20 09:22:45;;;;;;;29.40;12.65;;;;;;;0.04;100.00;101272.94;5024054;28;20350;-64
2023/01/20 09:25:11;;;;;;;25.25;11.43;;;;;;;0.05;100.00;101279.03;5024216;28;20141;-65
2023/01/20 09:27:36;;;;;;;28.30;12.38;;;;;;;0.03;100.00;101270.44;5024566;28;20038;-64
2023/01/20 09:30:03;;;;;;;27.27;12.55;;;;;;;-0.01;100.00;101272.47;5024126;28;20465;-64
2023/01/20 09:32:28;;;;;;;28.52;12.25;;;;;;;-0.09;100.00;101262.56;5024169;28;20033;-63
2023/01/20 09:34:55;;;;;;;30.50;14.50;;;;;;;-0.13;100.00;101261.13;5023897;28;20057;-64
2023/01/20 09:46:00;;;;;;;30.08;15.60;;;;;;;-0.15;100.00;101272.69;5024005;28;20068;-62
2023/01/20 09:54:37;;;;;;;28.20;14.02;;;;;;;-0.15;100.00;101247.31;5023589;28;20052;-64
2023/01/20 09:57:07;;;;;;;29.63;12.07;;;;;;;-0.15;100.00;101236.81;5023487;28;20033;-65
2023/01/20 09:59:59;;;;;;;28.02;11.68;;;;;;;-0.02;100.00;101261.16;5023374;28;20029;-65
2023/01/20 10:02:28;;;;;;;;;;;;;;;0.03;100.00;101257.31;5023689;28;20427;-65
2023/01/20 10:05:17;;;;;;;26.83;14.07;;;;;;;0.03;100.00;101266.03;5022928;28;19928;-66
2023/01/20 10:07:55;;;;;;;25.10;10.75;;;;;;;0.09;100.00;101280.47;5022300;28;20087;-64
2023/01/20 10:10:31;;;;;;;23.13;11.43;;;;;;;0.11;100.00;101278.56;5023024;28;20091;-65
2023/01/20 10:13:10;;;;;;;24.65;13.10;;;;;;;0.15;100.00;101277.34;5023104;28;20026;-64
2023/01/20 10:15:41;;;;;;;25.77;11.95;;;;;;;0.20;100.00;101283.91;5023087;28;20021;-66
2023/01/20 10:18:16;;;;;;;27.33;12.13;;;;;;;0.27;100.00;101278.22;5023754;28;20025;-65
2023/01/20 10:21:00;;;;;;;25.75;11.55;;;;;;;0.27;100.00;101280.84;5023894;28;20473;-65
2023/01/20 10:23:25;;;;;;;24.50;12.73;;;;;;;0.33;100.00;101281.19;5022934;28;20052;-63
2023/01/20 10:25:57;;;;;;;24.85;11.70;;;;;;;0.35;100.00;101281.06;5023795;28;20030;-63
2023/01/20 10:28:27;;;;;;;28.20;12.13;;;;;;;0.36;100.00;101283.56;5023817;28;20472;-65
2023/01/20 10:30:59;;;;;;;23.70;9.95;;;;;;;0.40;100.00;101292.88;5027708;28;20804;-63
2023/01/20 10:33:30;;;;;;;23.63;11.35;;;;;;;0.43;100.00;101292.63;5033227;28;20480;-64
2023/01/20 10:35:58;;;;;;;26.83;12.50;;;;;;;0.43;100.00;101294.41;5033503;28;20387;-63
2023/01/20 10:38:51;;;;;;;25.00;13.57;;;;;;;0.41;100.00;101294.53;5033363;28;20477;-64
2023/01/20 10:41:35;;;;;;;27.52;12.50;;;;;;;0.44;100.00;101290.84;5033208;28;20048;-64
2023/01/20 10:44:05;;;;;;;24.77;11.90;;;;;;;0.43;100.00;101299.66;5033257;28;20078;-64
2023/01/20 10:46:50;;;;;;;25.02;11.25;;;;;;;0.42;100.00;101292.75;5033044;28;20037;-64
2023/01/20 10:49:39;;;;;;;26.08;12.68;;;;;;;0.44;100.00;101296.91;5032732;28;20053;-63
2023/01/20 10:52:41;;;;;;;25.08;12.52;;;;;;;0.44;100.00;101296.91;5032783;28;20031;-63
2023/01/20 10:55:19;;;;;;;21.35;10.93;;;;;;;0.43;100.00;101297.88;5014876;28;20025;-64
2023/01/20 10:57:53;;;;;;;26.25;10.93;;;;;;;0.44;100.00;101286.41;5032471;28;20030;-63
2023/01/20 11:00:23;;;;;;;23.30;10.90;;;;;;;0.46;100.00;101295.97;5032487;28;20142;-64
2023/01/20 11:02:49;;;;;;;26.75;14.02;;;;;;;0.50;100.00;101300.88;5032499;28;20497;-64
2023/01/20 11:05:19;;;;;;;26.00;12.55;;;;;;;0.53;100.00;101298.00;5032317;28;20064;-64
2023/01/20 11:07:46;;;;;;;23.30;10.82;;;;;;;0.53;100.00;101302.41;5032368;28;20088;-63
2023/01/20 11:10:16;;;;;;;24.30;11.63;;;;;;;0.53;100.00;101305.88;5032627;28;20057;-64
2023/01/20 11:12:44;;;;;;;26.48;13.40;;;;;;;0.51;100.00;101305.16;5032184;28;20136;-64
2023/01/20 11:15:16;;;;;;;26.30;13.20;;;;;;;0.56;100.00;101310.03;5032446;28;20983;-64
2023/01/20 11:17:42;;;;;;;30.15;13.93;;;;;;;0.57;100.00;101312.53;5032474;28;20090;-64
2023/01/20 11:20:18;;;;;;;23.75;11.35;;;;;;;0.56;100.00;101310.03;5032619;28;20372;-68
2023/01/20 11:22:46;;;;;;;27.00;13.38;;;;;;;0.58;100.00;101314.22;5032526;28;20044;-68
2023/01/20 11:25:26;;;;;;;21.85;10.55;;;;;;;0.59;100.00;101320.28;5032142;28;20144;-68